createdAt,value
2022-09-05T00:01:56.848Z,26.40
2022-09-05T00:04:28.180Z,26.40
2022-09-05T00:06:59.528Z,26.40
2022-09-05T00:09:42.443Z,26.40
2022-09-05T00:12:10.013Z,26.40
2022-09-05T00:15:17.834Z,26.40
2022-09-05T00:18:47.031Z,26.40
2022-09-05T00:24:24.986Z,26.40
2022-09-05T00:24:36.351Z,26.40
2022-09-05T00:26:30.006Z,26.40
2022-09-05T00:29:15.028Z,26.40
2022-09-05T00:31:57.747Z,26.40
2022-09-05T00:34:41.145Z,26.40
2022-09-05T00:37:25.943Z,26.40
2022-09-05T00:39:57.865Z,26.40
2022-09-05T00:42:39.707Z,26.40
2022-09-05T00:45:15.401Z,26.40
2022-09-05T00:47:49.041Z,26.40
2022-09-05T00:50:29.721Z,26.40
2022-09-05T00:53:06.614Z,26.40
2022-09-05T00:55:52.974Z,26.40
2022-09-05T00:58:47.732Z,26.40
2022-09-05T01:01:32.460Z,26.40
2022-09-05T01:04:17.750Z,26.40
2022-09-05T01:06:47.576Z,26.40
2022-09-05T01:09:20.694Z,26.40
2022-09-05T01:11:50.406Z,26.40
2022-09-05T01:14:26.299Z,26.40
2022-09-05T01:16:55.891Z,26.40
2022-09-05T01:19:29.111Z,26.40
2022-09-05T01:22:14.512Z,26.40
2022-09-05T01:25:00.134Z,26.40
2022-09-05T01:27:26.909Z,26.40
2022-09-05T01:30:19.217Z,26.40
2022-09-05T01:32:55.246Z,26.40
2022-09-05T01:35:37.413Z,26.40
2022-09-05T01:38:14.258Z,26.40
2022-09-05T01:40:48.320Z,26.40
2022-09-05T01:43:52.548Z,26.40
2022-09-05T01:46:22.160Z,26.40
2022-09-05T01:48:57.876Z,26.40
2022-09-05T01:51:54.354Z,26.40
2022-09-05T01:54:40.929Z,26.40
2022-09-05T01:57:10.404Z,26.40
2022-09-05T01:59:37.078Z,26.40
2022-09-05T02:02:09.815Z,26.40
2022-09-05T02:04:59.253Z,26.40
2022-09-05T02:07:30.789Z,26.40
2022-09-05T02:10:10.723Z,26.40
2022-09-05T02:12:44.901Z,26.40
2022-09-05T02:15:38.095Z,26.40
2022-09-05T02:18:06.584Z,26.40
2022-09-05T02:20:48.457Z,26.40
2022-09-05T02:23:34.241Z,26.40
2022-09-05T02:26:08.147Z,26.40
2022-09-05T02:28:37.591Z,26.40
2022-09-05T02:31:20.551Z,26.40
2022-09-05T02:34:02.393Z,26.40
2022-09-05T02:36:38.226Z,26.40
2022-09-05T02:45:01.542Z,26.40
2022-09-05T02:45:11.605Z,26.40
2022-09-05T02:45:31.456Z,26.40
2022-09-05T02:48:17.362Z,26.40
2022-09-05T02:57:30.320Z,26.40
2022-09-05T02:57:39.944Z,26.40
2022-09-05T02:58:05.967Z,26.40
2022-09-05T02:59:47.681Z,26.40
2022-09-05T03:02:27.119Z,26.40
2022-09-05T03:05:04.310Z,26.40
2022-09-05T03:07:57.466Z,26.40
2022-09-05T03:10:58.931Z,26.40
2022-09-05T03:13:31.470Z,26.40
2022-09-05T03:16:07.193Z,26.30
2022-09-05T03:18:51.758Z,26.40
2022-09-05T03:21:37.581Z,26.40
2022-09-05T03:24:22.492Z,26.40
2022-09-05T03:26:49.373Z,26.40
2022-09-05T03:29:18.781Z,26.40
2022-09-05T03:32:04.364Z,26.40
2022-09-05T03:34:31.026Z,26.40
2022-09-05T03:37:25.693Z,26.40
2022-09-05T03:39:52.449Z,26.40
2022-09-05T03:42:31.343Z,26.40
2022-09-05T03:45:16.895Z,26.40
2022-09-05T03:48:24.716Z,26.40
2022-09-05T03:57:11.253Z,26.40
2022-09-05T03:57:16.236Z,26.40
2022-09-05T03:57:17.818Z,26.40
2022-09-05T03:59:38.028Z,26.30
2022-09-05T04:03:24.959Z,26.40
2022-09-05T04:08:13.435Z,26.40
2022-09-05T04:08:31.879Z,26.40
2022-09-05T04:10:45.772Z,26.40
2022-09-05T04:13:20.423Z,26.40
2022-09-05T04:15:54.647Z,26.40
2022-09-05T04:18:25.716Z,26.40
2022-09-05T04:21:10.455Z,26.40
2022-09-05T04:24:00.016Z,26.30
2022-09-05T04:26:30.309Z,26.30
2022-09-05T04:29:09.209Z,26.30
2022-09-05T04:31:36.116Z,26.30
2022-09-05T04:34:08.984Z,26.30
2022-09-05T04:36:37.826Z,26.40
2022-09-05T04:39:19.825Z,26.30
2022-09-05T04:41:49.534Z,26.30
2022-09-05T04:44:17.775Z,26.40
2022-09-05T04:47:04.858Z,26.40
2022-09-05T04:49:39.208Z,26.40
2022-09-05T04:52:16.799Z,26.40
2022-09-05T04:55:10.348Z,26.40
2022-09-05T04:57:52.466Z,26.40
2022-09-05T05:06:01.098Z,26.30
2022-09-05T05:06:15.940Z,26.40
2022-09-05T05:06:38.236Z,26.40
2022-09-05T05:08:57.027Z,26.30
2022-09-05T05:18:03.250Z,26.40
2022-09-05T05:18:06.548Z,26.30
2022-09-05T05:18:09.412Z,26.40
2022-09-05T05:20:40.564Z,26.40
2022-09-05T05:22:49.002Z,26.40
2022-09-05T05:25:17.786Z,26.40
2022-09-05T05:27:54.944Z,26.40
2022-09-05T05:30:27.166Z,26.40
2022-09-05T05:32:55.280Z,26.40
2022-09-05T05:35:25.679Z,26.40
2022-09-05T05:38:07.354Z,26.40
2022-09-05T05:40:50.540Z,26.40
2022-09-05T05:43:37.761Z,26.40
2022-09-05T05:46:04.753Z,26.40
2022-09-05T05:48:39.743Z,26.40
2022-09-05T05:51:13.379Z,26.40
2022-09-05T05:53:50.234Z,26.40
2022-09-05T05:56:37.738Z,26.40
2022-09-05T05:59:11.502Z,26.40
2022-09-05T06:01:41.294Z,26.40
2022-09-05T06:04:23.163Z,26.40
2022-09-05T06:06:49.808Z,26.40
2022-09-05T06:14:48.078Z,26.50
2022-09-05T06:14:56.698Z,26.50
2022-09-05T06:15:25.940Z,26.50
2022-09-05T06:17:53.536Z,26.60
2022-09-05T06:22:06.423Z,26.60
2022-09-05T06:23:38.748Z,26.60
2022-09-05T06:26:15.151Z,26.70
2022-09-05T06:28:59.883Z,26.70
2022-09-05T06:31:45.514Z,26.80
2022-09-05T06:34:33.089Z,26.80
2022-09-05T06:37:12.238Z,26.90
2022-09-05T06:40:09.499Z,26.90
2022-09-05T06:42:56.230Z,26.90
2022-09-05T06:45:35.105Z,27.00
2022-09-05T06:48:27.797Z,26.90
2022-09-05T06:51:25.055Z,26.90
2022-09-05T06:54:06.453Z,26.80
2022-09-05T06:56:36.213Z,26.80
2022-09-05T06:59:15.336Z,26.50
2022-09-05T07:02:01.344Z,26.40
2022-09-05T07:05:37.992Z,26.00
2022-09-05T07:07:23.620Z,25.80
2022-09-05T07:10:00.353Z,25.80
2022-09-05T07:12:38.501Z,25.90
2022-09-05T07:15:09.328Z,26.00
2022-09-05T07:18:06.492Z,26.00
2022-09-05T07:21:17.370Z,26.10
2022-09-05T07:24:06.278Z,25.80
2022-09-05T07:26:51.466Z,25.70
2022-09-05T07:29:24.241Z,26.00
2022-09-05T07:31:54.200Z,26.20
2022-09-05T07:34:23.934Z,26.20
2022-09-05T07:37:13.962Z,26.30
2022-09-05T07:39:45.692Z,26.00
2022-09-05T07:42:15.598Z,26.20
2022-09-05T07:45:10.802Z,26.20
2022-09-05T07:47:44.402Z,26.30
2022-09-05T07:51:44.467Z,26.20
2022-09-05T07:56:51.885Z,26.40
2022-09-05T07:56:58.898Z,26.50
2022-09-05T07:58:44.021Z,26.50
2022-09-05T08:01:12.624Z,26.60
2022-09-05T08:03:40.701Z,26.80
2022-09-05T08:06:09.639Z,27.00
2022-09-05T08:08:52.165Z,27.20
2022-09-05T08:11:32.578Z,27.30
2022-09-05T08:14:40.727Z,27.40
2022-09-05T08:16:59.543Z,27.50
2022-09-05T08:19:32.621Z,27.60
2022-09-05T08:22:01.506Z,27.70
2022-09-05T08:24:32.937Z,27.70
2022-09-05T08:27:05.011Z,27.70
2022-09-05T08:29:46.052Z,27.80
2022-09-05T08:32:20.711Z,27.80
2022-09-05T08:34:47.403Z,27.70
2022-09-05T08:37:22.018Z,27.70
2022-09-05T08:40:11.710Z,27.70
2022-09-05T08:42:45.583Z,27.80
2022-09-05T08:46:43.900Z,27.90
2022-09-05T08:48:51.788Z,28.00
2022-09-05T08:51:24.861Z,28.00
2022-09-05T08:54:00.912Z,27.90
2022-09-05T08:56:30.826Z,28.00
2022-09-05T08:59:31.582Z,27.90
2022-09-05T09:02:44.678Z,28.00
2022-09-05T09:05:14.303Z,28.10
2022-09-05T09:07:50.648Z,28.00
2022-09-05T09:10:37.893Z,28.10
2022-09-05T09:13:25.525Z,28.10
2022-09-05T09:16:11.279Z,28.20
2022-09-05T09:18:41.061Z,28.20
2022-09-05T09:21:26.620Z,28.20
2022-09-05T09:24:02.850Z,28.30
2022-09-05T09:26:33.881Z,28.20
2022-09-05T09:29:04.031Z,28.30
2022-09-05T09:31:50.212Z,28.30
2022-09-05T09:34:16.963Z,28.20
2022-09-05T09:36:46.408Z,28.20
2022-09-05T09:39:37.266Z,28.20
2022-09-05T09:42:02.903Z,28.10
2022-09-05T09:44:48.647Z,28.10
2022-09-05T09:47:20.803Z,28.20
2022-09-05T09:50:02.676Z,28.30
2022-09-05T09:53:13.109Z,28.20
2022-09-05T09:55:55.135Z,28.30
2022-09-05T09:58:32.953Z,28.40
2022-09-05T10:01:20.148Z,28.30
2022-09-05T10:10:37.829Z,28.30
2022-09-05T10:10:45.885Z,28.40
2022-09-05T10:10:52.851Z,28.40
2022-09-05T10:13:08.846Z,28.40
2022-09-05T10:15:47.837Z,28.40
2022-09-05T10:18:43.949Z,28.40
2022-09-05T10:21:29.062Z,28.30
2022-09-05T10:24:25.105Z,28.40
2022-09-05T10:27:04.352Z,28.40
2022-09-05T10:29:38.043Z,28.40
2022-09-05T10:35:09.783Z,28.40
2022-09-05T10:35:14.307Z,28.30
2022-09-05T10:37:49.566Z,28.30
2022-09-05T10:40:20.436Z,28.20
2022-09-05T10:42:58.156Z,28.20
2022-09-05T10:45:46.048Z,28.20
2022-09-05T10:48:24.675Z,28.20
2022-09-05T10:50:55.621Z,28.30
2022-09-05T10:53:38.877Z,28.30
2022-09-05T10:56:12.228Z,28.30
2022-09-05T11:01:40.286Z,28.40
2022-09-05T11:02:20.742Z,28.40
2022-09-05T11:04:49.628Z,28.20
2022-09-05T11:07:24.841Z,27.90
2022-09-05T11:10:02.666Z,27.90
2022-09-05T11:12:57.226Z,27.80
2022-09-05T11:15:45.790Z,27.70
2022-09-05T11:18:55.899Z,27.70
2022-09-05T11:21:38.778Z,27.60
2022-09-05T11:24:11.701Z,27.60
2022-09-05T11:26:43.918Z,27.50
2022-09-05T11:29:27.736Z,27.40
2022-09-05T11:36:03.941Z,27.40
2022-09-05T11:39:48.936Z,27.40
2022-09-05T11:39:50.313Z,27.30
2022-09-05T11:41:17.582Z,27.40
2022-09-05T11:43:47.813Z,27.50
2022-09-05T11:46:33.306Z,27.60
2022-09-05T11:49:17.539Z,27.60
2022-09-05T11:51:47.402Z,27.60
2022-09-05T11:54:17.052Z,27.60
2022-09-05T11:56:46.734Z,27.60
2022-09-05T11:59:32.991Z,27.60
2022-09-05T12:02:24.182Z,27.50
2022-09-05T12:05:49.079Z,27.50
2022-09-05T12:07:57.491Z,27.60
2022-09-05T12:10:46.208Z,27.60
2022-09-05T12:13:26.553Z,27.70
2022-09-05T12:16:08.076Z,27.70
2022-09-05T12:18:43.641Z,27.70
2022-09-05T12:21:19.650Z,27.80
2022-09-05T12:27:41.715Z,27.80
2022-09-05T12:29:50.016Z,27.80
2022-09-05T12:33:50.761Z,27.80
2022-09-05T12:36:11.564Z,27.80
2022-09-05T12:40:58.518Z,27.80
2022-09-05T12:41:40.699Z,27.70
2022-09-05T12:41:41.566Z,27.70
2022-09-05T12:44:41.624Z,27.70
2022-09-05T12:46:54.889Z,27.70
2022-09-05T12:49:52.165Z,27.70
2022-09-05T12:52:22.451Z,27.70
2022-09-05T12:54:56.900Z,27.70
2022-09-05T13:00:33.330Z,27.60
2022-09-05T13:03:03.809Z,27.50
2022-09-05T13:03:28.338Z,27.60
2022-09-05T13:05:54.520Z,27.60
2022-09-05T13:08:23.258Z,27.60
2022-09-05T13:14:49.162Z,27.70
2022-09-05T13:14:56.212Z,27.70
2022-09-05T13:16:35.409Z,27.80
2022-09-05T13:19:07.709Z,27.70
2022-09-05T13:21:41.138Z,27.60
2022-09-05T13:24:17.408Z,27.70
2022-09-05T13:27:05.649Z,27.70
2022-09-05T13:31:54.729Z,27.70
2022-09-05T13:38:07.592Z,27.70
2022-09-05T13:38:14.611Z,27.60
2022-09-05T13:38:48.657Z,27.60
2022-09-05T13:41:28.439Z,27.60
2022-09-05T13:44:00.232Z,27.60
2022-09-05T13:46:43.919Z,27.70
2022-09-05T13:49:27.843Z,27.60
2022-09-05T13:52:12.113Z,27.60
2022-09-05T13:54:38.811Z,27.60
2022-09-05T13:57:05.474Z,27.60
2022-09-05T13:59:40.119Z,27.70
2022-09-05T14:02:24.738Z,27.60
2022-09-05T14:05:14.876Z,27.60
2022-09-05T14:07:45.080Z,27.50
2022-09-05T14:10:18.819Z,27.50
2022-09-05T14:12:48.666Z,27.60
2022-09-05T14:15:35.568Z,27.60
2022-09-05T14:18:20.537Z,27.60
2022-09-05T14:21:15.747Z,27.60
2022-09-05T14:23:45.570Z,27.70
2022-09-05T14:26:19.238Z,27.70
2022-09-05T14:28:51.167Z,27.70
2022-09-05T14:35:29.306Z,27.60
2022-09-05T14:37:39.028Z,27.50
2022-09-05T14:37:42.038Z,27.50
2022-09-05T14:40:29.753Z,27.40
2022-09-05T14:43:27.411Z,27.40
2022-09-05T14:46:00.576Z,27.30
2022-09-05T14:48:33.366Z,27.30
2022-09-05T14:51:09.632Z,27.30
2022-09-05T14:54:00.996Z,27.30
2022-09-05T15:02:38.150Z,27.30
2022-09-05T15:02:42.335Z,27.30
2022-09-05T15:03:00.125Z,27.30
2022-09-05T15:05:11.161Z,27.30
2022-09-05T15:07:44.720Z,27.40
2022-09-05T15:12:14.944Z,27.40
2022-09-05T15:13:07.394Z,27.40
2022-09-05T15:15:40.183Z,27.30
2022-09-05T15:18:12.583Z,27.30
2022-09-05T15:20:43.939Z,27.30
2022-09-05T15:23:16.727Z,27.20
2022-09-05T15:25:45.843Z,27.20
2022-09-05T15:28:31.577Z,27.20
2022-09-05T15:31:00.239Z,27.20
2022-09-05T15:33:28.403Z,27.30
2022-09-05T15:35:56.074Z,27.30
2022-09-05T15:38:46.253Z,27.20
2022-09-05T15:41:23.016Z,27.20
2022-09-05T15:43:53.072Z,27.10
2022-09-05T15:46:21.782Z,27.10
2022-09-05T15:48:53.118Z,27.10
2022-09-05T15:51:32.387Z,27.10
2022-09-05T15:54:02.305Z,27.10
2022-09-05T15:56:30.103Z,27.10
2022-09-05T15:58:57.933Z,27.10
2022-09-05T16:01:43.409Z,27.10
2022-09-05T16:09:52.874Z,27.10
2022-09-05T16:10:31.242Z,27.00
2022-09-05T16:10:59.224Z,27.10
2022-09-05T16:12:44.913Z,27.10
2022-09-05T16:17:07.018Z,27.10
2022-09-05T16:23:28.519Z,27.10
2022-09-05T16:23:30.265Z,27.10
2022-09-05T16:23:51.195Z,27.20
2022-09-05T16:26:26.711Z,27.10
2022-09-05T16:28:58.845Z,27.20
2022-09-05T16:31:46.879Z,27.20
2022-09-05T16:34:21.683Z,27.10
2022-09-05T16:37:05.140Z,27.10
2022-09-05T16:39:36.919Z,27.10
2022-09-05T16:42:46.603Z,27.10
2022-09-05T16:45:14.220Z,27.10
2022-09-05T16:47:44.475Z,27.10
2022-09-05T16:50:35.449Z,27.10
2022-09-05T16:53:25.058Z,27.10
2022-09-05T16:56:01.781Z,27.10
2022-09-05T16:58:39.788Z,27.20
2022-09-05T17:01:25.346Z,27.30
2022-09-05T17:03:56.950Z,27.40
2022-09-05T17:06:45.773Z,27.40
2022-09-05T17:09:20.400Z,27.30
2022-09-05T17:12:00.642Z,27.30
2022-09-05T17:14:32.681Z,27.20
2022-09-05T17:17:01.454Z,27.10
2022-09-05T17:20:03.800Z,27.10
2022-09-05T17:28:03.802Z,27.10
2022-09-05T17:29:30.535Z,27.10
2022-09-05T17:30:39.110Z,27.10
2022-09-05T17:31:53.078Z,27.10
2022-09-05T17:34:21.071Z,27.10
2022-09-05T17:37:17.921Z,27.10
2022-09-05T17:39:45.465Z,27.10
2022-09-05T17:42:36.272Z,27.20
2022-09-05T17:45:18.112Z,27.30
2022-09-05T17:47:46.447Z,27.30
2022-09-05T17:50:18.002Z,27.40
2022-09-05T17:52:58.771Z,27.30
2022-09-05T17:55:37.784Z,27.30
2022-09-05T17:58:24.227Z,27.30
2022-09-05T18:00:51.227Z,27.30
2022-09-05T18:03:40.473Z,27.30
2022-09-05T18:06:16.225Z,27.30
2022-09-05T18:08:45.660Z,27.30
2022-09-05T18:11:25.510Z,27.30
2022-09-05T18:13:54.452Z,27.30
2022-09-05T18:17:36.858Z,27.30
2022-09-05T18:19:34.785Z,27.20
2022-09-05T18:22:21.668Z,27.20
2022-09-05T18:25:27.259Z,27.20
2022-09-05T18:28:04.952Z,27.10
2022-09-05T18:33:54.115Z,27.30
2022-09-05T18:35:55.414Z,27.30
2022-09-05T18:38:50.012Z,27.30
2022-09-05T18:41:13.461Z,27.20
2022-09-05T18:43:40.291Z,27.20
2022-09-05T18:46:18.018Z,27.20
2022-09-05T18:50:00.272Z,27.10
2022-09-05T18:51:53.227Z,27.20
2022-09-05T18:54:21.975Z,27.20
2022-09-05T18:57:26.803Z,27.10
2022-09-05T18:59:48.534Z,27.20
2022-09-05T19:02:58.509Z,27.20
2022-09-05T19:05:35.361Z,27.20
2022-09-05T19:08:03.908Z,27.10
2022-09-05T19:10:34.773Z,27.10
2022-09-05T19:13:15.466Z,27.10
2022-09-05T19:15:48.066Z,27.10
2022-09-05T19:18:26.785Z,27.10
2022-09-05T19:21:33.098Z,27.20
2022-09-05T19:24:07.009Z,27.10
2022-09-05T19:26:34.196Z,27.20
2022-09-05T19:36:52.544Z,27.20
2022-09-05T19:36:56.075Z,27.20
2022-09-05T19:37:03.446Z,27.30
2022-09-05T19:37:44.574Z,27.20
2022-09-05T19:47:15.017Z,27.20
2022-09-05T19:47:43.280Z,27.20
2022-09-05T19:47:50.280Z,27.20
2022-09-05T19:48:54.963Z,27.20
2022-09-05T19:51:26.764Z,27.30
2022-09-05T19:54:04.736Z,27.20
2022-09-05T19:56:35.399Z,27.30
2022-09-05T19:59:02.286Z,27.30
2022-09-05T20:01:29.290Z,27.30
2022-09-05T20:03:56.284Z,27.20
2022-09-05T20:06:28.988Z,27.20
2022-09-05T20:09:07.874Z,27.20
2022-09-05T20:11:36.037Z,27.30
2022-09-05T20:14:20.396Z,27.20
2022-09-05T20:16:49.800Z,27.20
2022-09-05T20:19:28.389Z,27.20
2022-09-05T20:21:57.227Z,27.20
2022-09-05T20:24:24.202Z,27.10
2022-09-05T20:26:51.052Z,27.10
2022-09-05T20:29:35.559Z,27.10
2022-09-05T20:32:18.387Z,27.10
2022-09-05T20:37:10.769Z,27.10
2022-09-05T20:43:20.998Z,27.10
2022-09-05T20:43:28.034Z,27.10
2022-09-05T20:43:52.794Z,27.00
2022-09-05T20:49:04.459Z,27.00
2022-09-05T20:54:07.013Z,27.10
2022-09-05T20:54:26.127Z,27.10
2022-09-05T20:54:56.466Z,27.10
2022-09-05T20:57:29.120Z,27.10
2022-09-05T20:59:56.406Z,27.10
2022-09-05T21:02:25.441Z,27.10
2022-09-05T21:05:20.846Z,27.10
2022-09-05T21:07:51.197Z,27.10
2022-09-05T21:10:56.038Z,27.10
2022-09-05T21:13:25.224Z,27.10
2022-09-05T21:15:54.082Z,27.10
2022-09-05T21:18:23.336Z,27.10
2022-09-05T21:21:29.248Z,27.10
2022-09-05T21:24:16.967Z,27.10
2022-09-05T21:26:49.028Z,27.10
2022-09-05T21:29:17.468Z,27.10
2022-09-05T21:31:54.909Z,27.10
2022-09-05T21:34:30.994Z,27.10
2022-09-05T21:37:07.978Z,27.00
2022-09-05T21:39:37.313Z,27.00
2022-09-05T21:43:02.549Z,27.10
2022-09-05T21:47:38.026Z,27.00
2022-09-05T21:47:52.364Z,27.00
2022-09-05T21:50:31.481Z,27.10
2022-09-05T21:55:28.244Z,27.00
2022-09-05T21:59:20.798Z,27.10
2022-09-05T21:59:24.164Z,27.00
2022-09-05T22:01:44.911Z,27.00
2022-09-05T22:04:11.791Z,27.00
2022-09-05T22:06:38.459Z,27.00
2022-09-05T22:09:11.481Z,27.00
2022-09-05T22:11:41.026Z,27.00
2022-09-05T22:14:09.052Z,27.00
2022-09-05T22:16:37.294Z,27.00
2022-09-05T22:19:11.812Z,27.00
2022-09-05T22:21:39.009Z,27.00
2022-09-05T22:24:08.935Z,27.00
2022-09-05T22:26:37.913Z,27.00
2022-09-05T22:29:09.751Z,27.10
2022-09-05T22:31:36.602Z,27.00
2022-09-05T22:34:03.544Z,27.00
2022-09-05T22:36:30.351Z,27.00
2022-09-05T22:38:57.049Z,27.00
2022-09-05T22:41:30.279Z,27.00
2022-09-05T22:43:58.032Z,27.00
2022-09-05T22:46:24.891Z,27.00
2022-09-05T22:48:51.586Z,27.00
2022-09-05T22:51:18.293Z,27.00
2022-09-05T22:53:45.031Z,27.00
2022-09-05T22:56:11.781Z,27.00
2022-09-05T22:58:42.720Z,27.00
2022-09-05T23:01:10.095Z,27.00
2022-09-05T23:03:37.237Z,27.00
2022-09-05T23:06:08.536Z,27.00
2022-09-05T23:08:35.363Z,27.00
2022-09-05T23:11:09.133Z,27.00
2022-09-05T23:13:36.038Z,27.00
2022-09-05T23:16:02.928Z,27.00
2022-09-05T23:18:30.172Z,27.00
2022-09-05T23:21:01.016Z,27.00
2022-09-05T23:23:27.780Z,27.00
2022-09-05T23:25:59.236Z,27.00
2022-09-05T23:28:26.164Z,27.00
2022-09-05T23:30:52.981Z,27.00
2022-09-05T23:33:20.164Z,27.00
2022-09-05T23:35:47.066Z,27.00
2022-09-05T23:38:13.754Z,27.00
2022-09-05T23:40:40.490Z,27.00
2022-09-05T23:43:07.481Z,27.00
2022-09-05T23:45:34.253Z,27.00
2022-09-05T23:48:00.981Z,27.00
2022-09-05T23:50:28.231Z,27.00
2022-09-05T23:52:54.947Z,27.00
2022-09-05T23:55:23.239Z,27.00
2022-09-05T23:57:49.967Z,27.00
